Time;durP1;ratioP1;P1;durP2;ratioP2;P2;SDS_P1;SDS_P2;PMS_P1;PMS_P2;Temp;Humidity;BMP_temperature;BMP_pressure;BME280_temperature;BME280_humidity;BME280_pressure;Samples;Min_cycle;Max_cycle;Signal;HPM_P1;HPM_P2
2023/07/01 00:00:19;;;;;;;8.52;2.88;;;16.90;99.90;;;;;;4954155;29;20035;-78
2023/07/01 00:02:48;;;;;;;9.43;3.13;;;16.90;99.90;;;;;;4949367;28;20137;-78
2023/07/01 00:05:14;;;;;;;6.03;2.92;;;16.90;99.90;;;;;;4921451;29;20050;-78
2023/07/01 00:07:39;;;;;;;7.63;3.38;;;16.90;99.90;;;;;;4922050;29;20043;-77
2023/07/01 00:10:06;;;;;;;6.80;2.95;;;16.90;99.90;;;;;;4921827;29;20057;-78
2023/07/01 00:12:31;;;;;;;7.10;3.13;;;17.00;99.90;;;;;;4935592;29;20050;-78
2023/07/01 00:14:57;;;;;;;7.40;2.83;;;16.90;99.90;;;;;;4930398;29;20039;-78
2023/07/01 00:17:22;;;;;;;7.18;2.88;;;17.00;99.90;;;;;;4921670;29;20074;-77
2023/07/01 00:19:48;;;;;;;7.00;2.88;;;17.00;99.90;;;;;;4937943;29;20043;-78
2023/07/01 00:22:13;;;;;;;8.38;3.10;;;17.00;99.90;;;;;;4920928;29;20043;-77
2023/07/01 00:24:39;;;;;;;8.50;3.03;;;17.10;99.90;;;;;;4945200;29;20039;-77
2023/07/01 00:27:05;;;;;;;10.32;3.45;;;17.00;99.90;;;;;;4936235;28;20543;-76
2023/07/01 00:29:30;;;;;;;7.18;3.20;;;17.00;99.90;;;;;;4938207;29;20039;-77
2023/07/01 00:31:56;;;;;;;11.15;3.75;;;17.00;99.90;;;;;;4936735;29;20730;-77
2023/07/01 00:34:22;;;;;;;7.70;3.03;;;17.00;99.90;;;;;;4921530;29;20043;-77
2023/07/01 00:36:47;;;;;;;10.32;3.33;;;17.00;99.90;;;;;;4920739;29;20066;-77
2023/07/01 00:39:13;;;;;;;8.23;3.47;;;17.00;99.90;;;;;;4942110;28;20405;-77
2023/07/01 00:41:38;;;;;;;8.13;3.03;;;17.00;99.90;;;;;;4955828;28;20513;-77
2023/07/01 00:44:04;;;;;;;6.35;3.03;;;17.00;99.90;;;;;;4920772;29;20043;-77
2023/07/01 00:46:33;;;;;;;6.57;3.10;;;17.00;99.90;;;;;;4936921;29;20045;-77
2023/07/01 00:49:00;;;;;;;9.57;3.45;;;17.00;99.90;;;;;;4937236;29;20413;-77
2023/07/01 00:51:28;;;;;;;6.55;3.35;;;17.00;99.90;;;;;;4920718;28;20123;-77
2023/07/01 00:53:54;;;;;;;7.15;3.15;;;17.00;99.90;;;;;;4946471;28;20513;-77
2023/07/01 00:56:20;;;;;;;6.80;2.95;;;17.00;99.90;;;;;;4951377;28;20489;-78
2023/07/01 00:58:46;;;;;;;7.95;3.22;;;17.10;99.90;;;;;;4934511;28;20093;-78
2023/07/01 01:01:17;;;;;;;7.32;3.40;;;17.10;99.90;;;;;;4940087;28;20031;-78
2023/07/01 01:03:49;;;;;;;8.30;3.80;;;17.10;99.90;;;;;;4936992;28;20251;-78
2023/07/01 01:06:24;;;;;;;5.85;3.33;;;17.10;99.90;;;;;;4919414;29;20051;-77
2023/07/01 01:09:11;;;;;;;8.07;3.53;;;17.10;99.90;;;;;;4938154;29;20039;-78
2023/07/01 01:11:44;;;;;;;6.65;3.17;;;17.10;99.90;;;;;;4952776;28;20486;-78
2023/07/01 01:14:11;;;;;;;8.40;3.63;;;17.10;99.90;;;;;;4952969;29;20075;-78
2023/07/01 01:16:40;;;;;;;7.45;3.83;;;17.20;99.90;;;;;;4935555;29;20410;-78
2023/07/01 01:19:19;;;;;;;7.60;3.25;;;17.20;99.90;;;;;;4928679;29;20066;-78
2023/07/01 01:21:51;;;;;;;8.65;3.75;;;17.20;99.90;;;;;;4919294;29;20688;-78
2023/07/01 01:24:20;;;;;;;6.38;3.40;;;17.20;99.90;;;;;;4927504;28;20037;-78
2023/07/01 01:26:51;;;;;;;8.63;3.42;;;17.20;99.90;;;;;;4952229;28;20051;-78
2023/07/01 01:29:17;;;;;;;6.60;3.58;;;17.20;99.90;;;;;;4936521;29;20035;-79
2023/07/01 01:31:43;;;;;;;8.55;3.67;;;17.30;99.90;;;;;;4935270;29;20636;-77
2023/07/01 01:34:09;;;;;;;5.30;3.35;;;17.30;99.90;;;;;;4944846;29;20094;-78
2023/07/01 01:36:45;;;;;;;7.07;3.70;;;17.30;99.90;;;;;;4918601;29;20091;-77
2023/07/01 01:39:13;;;;;;;9.00;3.80;;;17.30;99.90;;;;;;4921070;29;20483;-78
2023/07/01 01:41:46;;;;;;;5.88;3.42;;;17.30;99.90;;;;;;4901816;29;20035;-78
2023/07/01 01:44:19;;;;;;;;;;;17.30;99.90;;;;;;4918223;29;20495;-78
2023/07/01 01:46:45;;;;;;;10.70;4.05;;;17.30;99.90;;;;;;4911894;28;19917;-78
2023/07/01 01:49:12;;;;;;;6.30;3.67;;;17.20;99.90;;;;;;4948765;29;20509;-78
2023/07/01 01:51:40;;;;;;;7.57;4.20;;;17.20;99.90;;;;;;4917340;29;20566;-78
2023/07/01 01:54:08;;;;;;;8.77;4.30;;;17.20;99.90;;;;;;4918190;29;20443;-78
2023/07/01 01:56:35;;;;;;;8.55;3.97;;;17.20;99.90;;;;;;4901357;29;20039;-78
2023/07/01 01:59:01;;;;;;;8.73;3.88;;;17.30;99.90;;;;;;4922255;29;20028;-78
2023/07/01 02:01:27;;;;;;;6.95;3.75;;;17.20;99.90;;;;;;4949440;28;20043;-77
2023/07/01 02:03:52;;;;;;;7.80;4.05;;;17.30;99.90;;;;;;4936300;29;20042;-77
2023/07/01 02:06:18;;;;;;;8.45;3.80;;;17.30;99.90;;;;;;4936106;29;20062;-78
2023/07/01 02:08:43;;;;;;;7.72;3.75;;;17.20;99.90;;;;;;4927406;29;20571;-77
2023/07/01 02:11:09;;;;;;;6.65;3.78;;;17.30;99.90;;;;;;4920269;28;20042;-78
2023/07/01 02:13:35;;;;;;;7.93;3.72;;;17.20;99.90;;;;;;4932822;28;20117;-77
2023/07/01 02:16:00;;;;;;;7.13;3.83;;;17.20;99.90;;;;;;4942075;28;20504;-78
2023/07/01 02:18:26;;;;;;;8.40;3.70;;;17.30;99.90;;;;;;4949887;29;20043;-77
2023/07/01 02:20:51;;;;;;;7.85;3.88;;;17.30;99.90;;;;;;4938673;29;20035;-78
2023/07/01 02:23:17;;;;;;;8.80;4.00;;;17.30;99.90;;;;;;4939797;29;20103;-78
2023/07/01 02:25:43;;;;;;;9.55;4.95;;;17.30;99.90;;;;;;4939618;29;20078;-77
2023/07/01 02:28:09;;;;;;;6.80;3.85;;;17.20;99.90;;;;;;4926182;29;20035;-78
2023/07/01 02:30:35;;;;;;;8.70;4.10;;;17.20;99.90;;;;;;4926396;28;20034;-77
2023/07/01 02:33:02;;;;;;;8.75;4.10;;;17.20;99.90;;;;;;4958602;28;20038;-77
2023/07/01 05:49:37;;;;;;;9.63;7.10;;;16.40;99.90;;;;;;4970346;28;20497;-77
2023/07/01 05:52:03;;;;;;;11.10;8.23;;;16.40;99.90;;;;;;4959395;28;20042;-77
2023/07/01 05:54:29;;;;;;;8.48;7.65;;;16.40;99.90;;;;;;4955184;28;20039;-77
2023/07/01 05:56:55;;;;;;;12.57;9.18;;;16.40;99.90;;;;;;4957668;28;20045;-77
2023/07/01 05:59:20;;;;;;;9.07;7.20;;;16.30;99.90;;;;;;4943582;28;20045;-77
2023/07/01 06:01:46;;;;;;;11.05;9.98;;;16.30;99.90;;;;;;4968373;28;20377;-76
2023/07/01 06:04:11;;;;;;;11.30;10.05;;;16.30;99.90;;;;;;4961866;28;20042;-76
2023/07/01 06:06:38;;;;;;;10.38;9.32;;;16.30;99.90;;;;;;4953245;28;20039;-76
2023/07/01 06:09:04;;;;;;;11.18;10.10;;;16.30;99.90;;;;;;4956779;28;20169;-79
2023/07/01 06:11:30;;;;;;;10.35;9.35;;;16.20;99.90;;;;;;4977861;28;20124;-75
2023/07/01 06:13:56;;;;;;;11.27;10.20;;;16.20;99.90;;;;;;4964028;28;20031;-76
2023/07/01 06:16:21;;;;;;;16.70;12.40;;;16.20;99.90;;;;;;4959117;28;20046;-76
2023/07/01 06:18:47;;;;;;;12.73;10.75;;;16.10;99.90;;;;;;4940962;28;20066;-76
2023/07/01 06:21:13;;;;;;;10.95;9.95;;;16.10;99.90;;;;;;4975532;28;20045;-76
2023/07/01 06:23:38;;;;;;;15.40;13.90;;;16.10;99.90;;;;;;4952144;28;20070;-77
2023/07/01 06:26:05;;;;;;;13.48;12.07;;;16.10;99.90;;;;;;4959616;28;20549;-77
2023/07/01 06:28:31;;;;;;;14.07;12.10;;;16.00;99.90;;;;;;4957181;28;20039;-77
2023/07/01 06:30:57;;;;;;;14.43;13.13;;;16.10;99.90;;;;;;4957496;28;20037;-77
2023/07/01 06:33:22;;;;;;;14.73;11.77;;;16.10;99.90;;;;;;4952452;28;20038;-78
2023/07/01 06:35:48;;;;;;;21.02;18.45;;;16.10;99.90;;;;;;4951746;28;20081;-78
2023/07/01 06:38:14;;;;;;;13.75;12.30;;;16.10;99.90;;;;;;4927759;28;20114;-78
2023/07/01 06:40:39;;;;;;;15.63;14.07;;;16.10;99.90;;;;;;4944283;28;20118;-78
2023/07/01 06:43:05;;;;;;;16.73;15.07;;;16.10;99.90;;;;;;4954545;28;20042;-77
2023/07/01 06:45:31;;;;;;;14.30;12.88;;;16.10;99.90;;;;;;4944629;28;20097;-77
2023/07/01 06:47:58;;;;;;;17.70;16.10;;;16.10;99.90;;;;;;4951769;28;20038;-78
2023/07/01 06:50:24;;;;;;;17.88;16.05;;;16.10;99.90;;;;;;4958509;28;20057;-78
2023/07/01 06:52:49;;;;;;;16.85;15.25;;;16.20;99.90;;;;;;4955218;28;20035;-78
2023/07/01 06:55:15;;;;;;;16.85;15.35;;;16.20;99.90;;;;;;4957054;28;20038;-78
2023/07/01 06:57:42;;;;;;;19.83;17.85;;;16.20;99.90;;;;;;4937233;28;20421;-77
2023/07/01 07:00:10;;;;;;;17.05;15.43;;;16.30;99.90;;;;;;4957980;28;20039;-77
2023/07/01 07:02:35;;;;;;;20.58;18.45;;;16.30;99.90;;;;;;4941801;28;20043;-77
2023/07/01 07:05:03;;;;;;;17.88;16.08;;;16.30;99.90;;;;;;4947512;28;20458;-80
2023/07/01 07:07:29;;;;;;;15.07;13.73;;;16.30;99.90;;;;;;4939734;28;20497;-77
2023/07/01 07:09:54;;;;;;;17.00;15.55;;;16.30;99.90;;;;;;4948447;28;20042;-77
2023/07/01 07:12:20;;;;;;;17.73;15.40;;;16.40;99.90;;;;;;4969906;28;20034;-77
2023/07/01 07:14:46;;;;;;;18.67;16.95;;;16.40;99.90;;;;;;4957393;28;20564;-77
2023/07/01 07:17:11;;;;;;;17.25;15.75;;;16.30;99.90;;;;;;4935433;28;20057;-77
2023/07/01 07:19:37;;;;;;;16.75;15.07;;;16.30;99.90;;;;;;4957620;28;20034;-77
2023/07/01 07:22:03;;;;;;;15.55;14.27;;;16.40;99.90;;;;;;4962837;28;20091;-77
2023/07/01 07:24:29;;;;;;;17.40;15.65;;;16.40;99.90;;;;;;4946748;28;20054;-77
2023/07/01 07:26:57;;;;;;;16.52;15.10;;;16.40;99.90;;;;;;4949879;28;20039;-77
2023/07/01 07:29:24;;;;;;;16.42;15.13;;;16.40;99.90;;;;;;4972685;28;20034;-77
2023/07/01 07:31:50;;;;;;;20.92;18.92;;;16.50;99.90;;;;;;4977054;28;20038;-77
2023/07/01 07:34:15;;;;;;;16.17;14.75;;;16.50;99.90;;;;;;4976858;28;20093;-77
2023/07/01 07:36:42;;;;;;;16.98;15.38;;;16.60;99.90;;;;;;4956020;28;20098;-77
2023/07/01 07:39:14;;;;;;;17.58;15.98;;;16.60;99.90;;;;;;4972493;28;20045;-77
2023/07/01 07:41:41;;;;;;;20.45;18.52;;;16.70;99.90;;;;;;4938325;28;20047;-77
2023/07/01 07:44:06;;;;;;;16.10;14.65;;;16.80;99.90;;;;;;4939048;28;20366;-77
2023/07/01 07:46:33;;;;;;;15.52;14.13;;;16.80;99.90;;;;;;4954997;28;20038;-77
2023/07/01 07:48:58;;;;;;;13.68;12.57;;;16.80;99.90;;;;;;4955297;28;20548;-77
2023/07/01 07:51:24;;;;;;;15.23;13.93;;;16.90;99.90;;;;;;4947875;28;20121;-79
2023/07/01 07:53:49;;;;;;;15.65;14.43;;;16.90;99.90;;;;;;4954071;28;20027;-76
2023/07/01 07:56:15;;;;;;;18.92;16.95;;;17.00;99.90;;;;;;4951525;28;20034;-77
2023/07/01 07:58:40;;;;;;;13.13;12.13;;;17.10;99.90;;;;;;4975238;28;20030;-77
2023/07/01 08:01:06;;;;;;;14.40;13.13;;;17.10;99.90;;;;;;4952913;28;20023;-76
2023/07/01 08:03:32;;;;;;;13.15;12.05;;;17.10;99.90;;;;;;4955925;28;20102;-76
2023/07/01 08:05:57;;;;;;;13.43;12.23;;;17.10;99.90;;;;;;4951109;28;20047;-76
2023/07/01 08:08:23;;;;;;;12.93;11.80;;;17.10;99.90;;;;;;4954915;28;20633;-76
2023/07/01 08:10:48;;;;;;;14.07;12.95;;;17.10;99.90;;;;;;4949268;28;20463;-77
2023/07/01 08:13:15;;;;;;;13.75;12.45;;;17.10;99.90;;;;;;4959026;28;20559;-76
2023/07/01 08:15:42;;;;;;;12.02;11.02;;;17.00;99.90;;;;;;4963152;28;20027;-77
2023/07/01 08:18:08;;;;;;;12.57;11.57;;;17.00;99.90;;;;;;4975632;28;20065;-76
2023/07/01 08:20:34;;;;;;;14.20;12.85;;;17.00;99.90;;;;;;4975845;28;20042;-76
2023/07/01 08:22:59;;;;;;;12.02;11.02;;;17.10;99.90;;;;;;4976051;28;20065;-76
2023/07/01 08:25:25;;;;;;;12.27;11.30;;;17.10;99.90;;;;;;4975827;28;20101;-77
2023/07/01 08:27:51;;;;;;;16.30;15.00;;;17.10;99.90;;;;;;4969044;28;20052;-76
2023/07/01 08:30:16;;;;;;;12.18;11.27;;;17.10;99.90;;;;;;4943809;28;20035;-76
2023/07/01 08:32:42;;;;;;;12.80;11.80;;;17.20;99.90;;;;;;4975673;28;20531;-76
2023/07/01 08:35:08;;;;;;;14.77;13.57;;;17.20;99.90;;;;;;4975668;28;20034;-76
2023/07/01 08:37:34;;;;;;;12.23;11.25;;;17.20;99.90;;;;;;4975441;28;20410;-76
2023/07/01 08:40:00;;;;;;;14.23;13.10;;;17.30;99.90;;;;;;4975815;28;20105;-76
2023/07/01 08:42:40;;;;;;;15.18;13.98;;;17.30;99.90;;;;;;4967820;28;20074;-76
2023/07/01 08:45:07;;;;;;;15.10;13.80;;;17.40;99.90;;;;;;4975637;28;20107;-76
2023/07/01 08:47:33;;;;;;;13.48;12.27;;;17.40;99.90;;;;;;4975144;28;20104;-76
2023/07/01 08:50:05;;;;;;;13.57;12.48;;;17.30;99.90;;;;;;4975563;28;20073;-76
2023/07/01 08:52:40;;;;;;;14.40;13.20;;;17.40;99.90;;;;;;4975346;28;20043;-75
2023/07/01 08:55:11;;;;;;;12.23;11.32;;;17.40;99.90;;;;;;4964618;28;20097;-76
2023/07/01 08:57:39;;;;;;;17.33;15.63;;;17.50;99.90;;;;;;4959222;28;20129;-76
2023/07/01 09:00:06;;;;;;;16.05;14.75;;;17.50;99.90;;;;;;4959245;28;20034;-76
2023/07/01 09:02:33;;;;;;;14.75;13.55;;;17.60;99.90;;;;;;4958323;28;20082;-76
2023/07/01 09:04:59;;;;;;;15.48;14.18;;;17.60;99.90;;;;;;4969688;28;20537;-75
2023/07/01 09:07:25;;;;;;;16.50;15.20;;;17.60;99.90;;;;;;4974858;28;20053;-75
2023/07/01 09:09:50;;;;;;;18.00;16.40;;;17.60;99.90;;;;;;4972868;28;20042;-75
2023/07/01 09:12:16;;;;;;;19.77;17.90;;;17.70;99.90;;;;;;4958925;28;20497;-75
2023/07/01 09:15:04;;;;;;;16.55;15.25;;;17.70;99.90;;;;;;4975056;28;20234;-75
2023/07/01 09:17:31;;;;;;;16.40;15.18;;;17.80;99.90;;;;;;4961373;28;20043;-76
2023/07/01 09:20:08;;;;;;;14.45;13.25;;;17.90;99.90;;;;;;4974853;28;20034;-76
2023/07/01 09:22:35;;;;;;;17.30;15.73;;;18.00;99.90;;;;;;4975221;28;20053;-76
2023/07/01 09:25:01;;;;;;;16.73;15.30;;;18.20;99.90;;;;;;4975028;28;20523;-76
2023/07/01 09:27:47;;;;;;;14.30;12.98;;;18.40;99.90;;;;;;4949976;28;20039;-76
2023/07/01 09:30:24;;;;;;;14.85;13.55;;;18.40;99.90;;;;;;4958152;28;20046;-76
2023/07/01 09:32:49;;;;;;;14.02;12.82;;;18.40;99.90;;;;;;4928587;29;20049;-77
2023/07/01 09:35:15;;;;;;;17.23;15.60;;;18.40;99.90;;;;;;4939929;28;20133;-77
2023/07/01 09:37:41;;;;;;;14.10;12.90;;;18.40;99.90;;;;;;4954256;28;20062;-77
2023/07/01 09:40:22;;;;;;;14.43;13.13;;;18.50;99.90;;;;;;4952810;28;20034;-78
2023/07/01 09:42:52;;;;;;;11.45;10.45;;;18.50;99.90;;;;;;4952115;28;20042;-78
2023/07/01 09:45:18;;;;;;;13.98;12.80;;;18.40;99.90;;;;;;4972101;28;20039;-78
2023/07/01 09:47:43;;;;;;;11.13;10.25;;;18.40;99.90;;;;;;4964394;28;20105;-79
2023/07/01 09:50:23;;;;;;;12.68;11.63;;;18.40;99.90;;;;;;4947481;28;20138;-78
2023/07/01 09:52:50;;;;;;;11.52;10.52;;;18.30;99.90;;;;;;4931518;28;20039;-77
2023/07/01 09:55:17;;;;;;;11.23;10.32;;;18.30;99.90;;;;;;4945937;28;20035;-78
2023/07/01 09:57:42;;;;;;;12.07;11.05;;;18.40;99.90;;;;;;4946697;28;20035;-78
2023/07/01 10:00:16;;;;;;;13.98;12.57;;;18.40;99.90;;;;;;4942311;28;20545;-76
2023/07/01 10:02:48;;;;;;;12.30;11.25;;;18.20;99.90;;;;;;4939481;28;20154;-76
2023/07/01 10:05:14;;;;;;;10.65;9.85;;;18.20;99.90;;;;;;4951891;28;20039;-77
2023/07/01 10:07:44;;;;;;;11.05;10.18;;;18.30;99.90;;;;;;4947471;28;20046;-76
2023/07/01 10:10:18;;;;;;;10.80;10.00;;;18.30;99.90;;;;;;4955982;28;20039;-77
2023/07/01 10:12:45;;;;;;;12.63;11.55;;;18.50;99.90;;;;;;4924271;28;20047;-77
2023/07/01 10:15:13;;;;;;;11.00;10.20;;;18.70;99.90;;;;;;4954853;28;20039;-76
2023/07/01 10:17:55;;;;;;;9.98;9.15;;;18.90;99.90;;;;;;4941590;28;20039;-76
2023/07/01 10:20:27;;;;;;;10.65;9.60;;;19.00;99.90;;;;;;4958656;28;20137;-76
2023/07/01 10:22:55;;;;;;;12.07;11.02;;;18.90;99.90;;;;;;4970072;28;20042;-76
2023/07/01 10:25:37;;;;;;;10.27;9.57;;;18.90;99.90;;;;;;4957729;28;20301;-76
2023/07/01 10:28:05;;;;;;;10.13;9.25;;;18.90;99.90;;;;;;4946004;28;20043;-76
2023/07/01 10:30:45;;;;;;;11.23;10.23;;;18.90;99.90;;;;;;4953025;28;20527;-75
2023/07/01 10:33:43;;;;;;;10.80;9.25;;;18.90;99.90;;;;;;4960537;28;20061;-76
2023/07/01 10:36:10;;;;;;;10.20;9.38;;;18.80;99.90;;;;;;4908437;29;20051;-77
2023/07/01 10:38:39;;;;;;;8.73;7.97;;;18.80;99.90;;;;;;4938317;29;20035;-77
2023/07/01 10:41:05;;;;;;;9.05;8.35;;;18.90;99.90;;;;;;4956321;28;20478;-77
2023/07/01 10:43:39;;;;;;;8.57;7.85;;;18.80;99.90;;;;;;4958225;28;20046;-76
2023/07/01 10:46:23;;;;;;;9.75;8.95;;;18.80;99.90;;;;;;4944929;28;20043;-76
2023/07/01 10:49:05;;;;;;;10.65;9.75;;;18.80;99.90;;;;;;4949667;28;20035;-76
2023/07/01 10:51:46;;;;;;;8.85;8.15;;;18.90;99.90;;;;;;4950587;28;20070;-76
2023/07/01 10:54:11;;;;;;;10.40;9.50;;;19.00;99.90;;;;;;4967212;28;20121;-76
2023/07/01 10:56:39;;;;;;;9.20;8.50;;;19.00;99.90;;;;;;4949574;28;20521;-76
2023/07/01 10:59:17;;;;;;;10.10;9.23;;;19.10;99.90;;;;;;4955284;28;20187;-76
2023/07/01 11:01:45;;;;;;;10.23;9.43;;;19.20;99.90;;;;;;4946299;28;20421;-76
2023/07/01 11:04:10;;;;;;;9.73;8.80;;;19.20;99.90;;;;;;4957528;28;20516;-76
2023/07/01 11:06:45;;;;;;;9.80;9.00;;;19.30;99.90;;;;;;4950337;28;20039;-76
2023/07/01 11:09:12;;;;;;;8.70;8.07;;;19.30;99.90;;;;;;4954031;28;20046;-76
2023/07/01 11:11:37;;;;;;;10.75;9.77;;;19.30;99.90;;;;;;4957383;28;20047;-76
2023/07/01 11:14:08;;;;;;;11.23;10.10;;;19.30;99.90;;;;;;4955116;28;20045;-76
2023/07/01 11:16:36;;;;;;;10.50;9.43;;;19.10;99.90;;;;;;4951094;28;21534;-76
2023/07/01 11:19:07;;;;;;;12.88;11.18;;;19.10;99.90;;;;;;4965150;28;20042;-80
2023/07/01 11:21:33;;;;;;;14.07;12.02;;;19.00;99.90;;;;;;4957377;28;20051;-77
2023/07/01 11:24:03;;;;;;;12.15;11.00;;;19.00;99.90;;;;;;4972471;28;20061;-77
2023/07/01 11:26:33;;;;;;;11.68;10.73;;;19.10;99.90;;;;;;4943419;28;20057;-79
2023/07/01 11:28:59;;;;;;;14.48;13.02;;;19.10;99.90;;;;;;4937989;28;20038;-77
2023/07/01 11:31:29;;;;;;;12.60;11.60;;;19.20;99.90;;;;;;4954836;28;20430;-77
2023/07/01 11:33:56;;;;;;;11.48;10.48;;;19.60;99.90;;;;;;4948510;28;20093;-77
2023/07/01 11:36:35;;;;;;;11.18;10.18;;;20.10;99.90;;;;;;4956109;28;20401;-77
2023/07/01 11:39:06;;;;;;;11.32;10.15;;;20.40;99.90;;;;;;4942279;28;20030;-77
2023/07/01 11:41:33;;;;;;;8.80;8.05;;;20.50;99.90;;;;;;4946264;28;20557;-77
2023/07/01 11:43:58;;;;;;;8.38;7.68;;;20.70;99.90;;;;;;4955706;28;20049;-77
2023/07/01 11:46:32;;;;;;;8.40;7.55;;;20.50;99.90;;;;;;4948435;28;20039;-76
2023/07/01 11:49:21;;;;;;;7.72;7.03;;;20.40;99.90;;;;;;4958434;28;20043;-76
2023/07/01 11:51:58;;;;;;;7.90;7.13;;;20.20;99.90;;;;;;4959969;28;20038;-76
2023/07/01 11:54:47;;;;;;;6.05;5.45;;;20.10;99.90;;;;;;4947506;28;20038;-75
2023/07/01 11:57:15;;;;;;;7.68;6.88;;;20.10;99.90;;;;;;4966019;28;20081;-76
2023/07/01 12:00:01;;;;;;;7.32;6.18;;;20.30;99.90;;;;;;4944949;28;20493;-76
2023/07/01 12:02:31;;;;;;;9.32;8.32;;;20.50;99.90;;;;;;4946965;23;20517;-84
2023/07/01 12:04:58;;;;;;;7.78;7.07;;;20.50;99.90;;;;;;4936083;29;20035;-88
2023/07/01 12:07:24;;;;;;;8.27;7.47;;;20.50;99.90;;;;;;4934327;29;20038;-84
2023/07/01 12:09:50;;;;;;;7.57;6.82;;;20.50;99.90;;;;;;4918636;29;20125;-83
2023/07/01 12:12:17;;;;;;;8.90;7.38;;;20.60;99.90;;;;;;4927291;29;20039;-83
2023/07/01 12:14:43;;;;;;;8.20;7.50;;;20.80;99.90;;;;;;4925604;29;20552;-83
2023/07/01 12:17:25;;;;;;;7.95;7.25;;;20.80;99.90;;;;;;4921081;29;20029;-83
2023/07/01 12:19:51;;;;;;;7.72;6.88;;;21.00;99.90;;;;;;4925016;29;20035;-83
2023/07/01 12:22:17;;;;;;;9.90;7.60;;;20.90;99.90;;;;;;4954858;28;20152;-83
2023/07/01 12:24:42;;;;;;;9.40;8.23;;;21.00;99.90;;;;;;4928368;29;20070;-83
2023/07/01 12:27:08;;;;;;;14.52;10.05;;;20.80;99.90;;;;;;4944131;28;20473;-83
2023/07/01 12:29:34;;;;;;;12.15;9.15;;;20.60;99.90;;;;;;4941984;29;20043;-82
2023/07/01 12:31:59;;;;;;;11.70;10.50;;;20.50;99.90;;;;;;4948174;29;20039;-82
2023/07/01 12:34:25;;;;;;;11.88;10.75;;;20.50;99.90;;;;;;4921562;29;20087;-80
2023/07/01 12:36:52;;;;;;;11.90;10.77;;;20.60;99.90;;;;;;4933600;29;20055;-80
2023/07/01 12:39:18;;;;;;;12.85;11.75;;;20.90;99.90;;;;;;4935280;29;20494;-81
2023/07/01 12:41:46;;;;;;;13.35;12.05;;;21.30;99.90;;;;;;4934249;29;20126;-81
2023/07/01 12:44:13;;;;;;;12.98;11.73;;;22.00;99.90;;;;;;4934718;29;20497;-81
2023/07/01 12:46:43;;;;;;;9.90;9.10;;;22.70;99.90;;;;;;4941147;29;20039;-82
2023/07/01 12:49:09;;;;;;;11.18;10.18;;;23.00;99.90;;;;;;4940627;28;20525;-81
2023/07/01 12:51:36;;;;;;;10.60;9.63;;;23.10;99.90;;;;;;4916969;29;20055;-81
2023/07/01 12:54:03;;;;;;;11.02;10.13;;;23.00;99.90;;;;;;4899287;29;20507;-81
2023/07/01 12:56:29;;;;;;;10.02;9.13;;;22.80;99.90;;;;;;4949185;28;20050;-80
2023/07/01 12:58:55;;;;;;;11.13;10.10;;;22.40;99.90;;;;;;4957307;28;20031;-81
2023/07/01 13:01:20;;;;;;;11.57;10.57;;;22.10;99.90;;;;;;4966582;28;20505;-80
2023/07/01 13:03:46;;;;;;;11.40;10.38;;;21.70;99.90;;;;;;4938220;29;20094;-81
2023/07/01 13:06:27;;;;;;;10.20;9.10;;;21.30;99.90;;;;;;4961721;28;20508;-79
2023/07/01 13:08:58;;;;;;;7.90;6.80;;;20.90;99.90;;;;;;4911713;29;20043;-80
2023/07/01 13:11:25;;;;;;;7.85;7.10;;;20.50;99.90;;;;;;4917374;29;20088;-80
2023/07/01 13:13:52;;;;;;;7.55;6.68;;;20.30;99.90;;;;;;4910430;29;20031;-84
2023/07/01 13:16:31;;;;;;;10.20;9.20;;;20.00;99.90;;;;;;4909761;29;20035;-81
2023/07/01 13:19:02;;;;;;;10.45;9.23;;;19.80;99.90;;;;;;4936872;29;20478;-82
2023/07/01 13:21:28;;;;;;;10.23;8.90;;;19.60;99.90;;;;;;4936731;29;20135;-81
2023/07/01 13:23:54;;;;;;;9.40;8.60;;;19.50;99.90;;;;;;4944015;29;20461;-81
2023/07/01 13:26:28;;;;;;;8.90;8.07;;;19.60;99.90;;;;;;4937286;29;20027;-81
2023/07/01 13:28:56;;;;;;;9.10;8.30;;;19.80;99.90;;;;;;4911032;29;20032;-81
2023/07/01 13:31:23;;;;;;;9.80;8.98;;;20.10;99.90;;;;;;4955757;28;20035;-81
2023/07/01 13:33:54;;;;;;;9.40;8.60;;;20.30;99.90;;;;;;4906729;29;20536;-81
2023/07/01 13:36:19;;;;;;;10.07;9.18;;;20.50;99.90;;;;;;4933498;29;20103;-81
2023/07/01 13:38:47;;;;;;;9.88;8.90;;;20.60;99.90;;;;;;4948695;28;20044;-81
2023/07/01 13:41:14;;;;;;;9.98;9.07;;;20.70;99.90;;;;;;4935548;28;20098;-84
2023/07/01 13:43:40;;;;;;;10.90;9.80;;;20.80;99.90;;;;;;4941202;29;20122;-81
2023/07/01 13:46:06;;;;;;;10.20;9.30;;;21.00;99.90;;;;;;4933239;29;20123;-82
2023/07/01 13:48:38;;;;;;;9.85;8.88;;;21.10;99.90;;;;;;4954219;28;20048;-81
2023/07/01 13:51:04;;;;;;;11.50;10.32;;;21.10;99.90;;;;;;4928986;29;20482;-81
2023/07/01 13:53:32;;;;;;;12.07;10.35;;;21.30;99.90;;;;;;4948611;28;20041;-81
2023/07/01 13:55:58;;;;;;;10.15;9.05;;;21.50;99.90;;;;;;4955134;28;20091;-81
2023/07/01 13:58:27;;;;;;;10.32;9.43;;;21.50;99.90;;;;;;4940089;29;20118;-80
2023/07/01 14:00:53;;;;;;;10.90;9.95;;;21.40;99.90;;;;;;4947298;28;20040;-82
2023/07/01 14:03:22;;;;;;;11.00;10.00;;;21.40;99.90;;;;;;4925250;29;20044;-81
2023/07/01 14:05:50;;;;;;;10.77;9.77;;;21.40;99.90;;;;;;4960996;28;20074;-82
2023/07/01 14:08:18;;;;;;;8.88;8.00;;;21.30;99.90;;;;;;4941443;28;20107;-84
2023/07/01 14:10:44;;;;;;;7.82;7.15;;;21.20;99.90;;;;;;4931778;29;20047;-84
2023/07/01 14:13:12;;;;;;;7.35;4.35;;;20.80;99.90;;;;;;4946826;28;20383;-81
2023/07/01 14:15:45;;;;;;;5.18;4.78;;;20.50;99.90;;;;;;4907390;29;20090;-82
2023/07/01 14:18:19;;;;;;;5.30;4.80;;;20.10;99.90;;;;;;4906289;29;20042;-82
2023/07/01 14:20:51;;;;;;;6.55;5.80;;;19.70;99.90;;;;;;4953031;28;20043;-83
2023/07/01 14:23:21;;;;;;;6.93;6.33;;;19.50;99.90;;;;;;4928535;29;20123;-82
2023/07/01 14:25:51;;;;;;;5.97;5.47;;;19.40;99.90;;;;;;4946787;29;20035;-83
2023/07/01 14:28:17;;;;;;;7.65;7.07;;;19.40;99.90;;;;;;4960118;28;20035;-79
2023/07/01 14:30:45;;;;;;;9.38;8.48;;;19.50;99.90;;;;;;4937720;29;20071;-81
2023/07/01 14:33:11;;;;;;;8.18;7.60;;;19.60;99.90;;;;;;4946881;28;20040;-82
2023/07/01 14:35:38;;;;;;;8.30;7.63;;;19.80;99.90;;;;;;4915857;29;20031;-81
2023/07/01 14:38:03;;;;;;;9.05;8.25;;;20.00;99.90;;;;;;4931456;29;20118;-81
2023/07/01 14:40:29;;;;;;;9.45;8.40;;;20.30;99.90;;;;;;4939653;29;20129;-82
2023/07/01 14:43:05;;;;;;;8.80;8.10;;;20.30;99.90;;;;;;4939625;29;20490;-81
2023/07/01 14:45:31;;;;;;;8.70;7.80;;;20.40;99.90;;;;;;4935503;29;20043;-82
2023/07/01 14:47:57;;;;;;;11.35;9.00;;;20.30;99.90;;;;;;4943168;28;20062;-81
2023/07/01 14:50:22;;;;;;;8.82;7.97;;;20.00;99.90;;;;;;4943855;29;20047;-82
2023/07/01 14:52:48;;;;;;;8.80;7.85;;;19.80;99.90;;;;;;4935103;29;20059;-82
2023/07/01 14:55:13;;;;;;;8.05;7.30;;;19.50;99.90;;;;;;4923206;29;20399;-81
2023/07/01 14:57:39;;;;;;;11.80;7.30;;;19.30;99.90;;;;;;4970754;28;20042;-80
2023/07/01 15:00:06;;;;;;;8.02;7.32;;;19.20;99.90;;;;;;4938298;29;20031;-82
2023/07/01 15:02:32;;;;;;;8.48;7.65;;;19.20;99.90;;;;;;4927366;29;20066;-80
2023/07/01 15:04:57;;;;;;;8.63;7.78;;;19.20;99.90;;;;;;4950716;29;20499;-80
2023/07/01 15:07:23;;;;;;;9.10;8.18;;;19.10;99.90;;;;;;4905228;29;20455;-79
2023/07/01 15:09:49;;;;;;;10.43;9.32;;;19.20;99.90;;;;;;4923450;29;20072;-77
2023/07/01 15:12:14;;;;;;;9.85;8.68;;;19.30;99.90;;;;;;4916557;29;20533;-78
2023/07/01 15:14:40;;;;;;;9.10;7.63;;;19.40;99.90;;;;;;4916990;29;20088;-80
2023/07/01 15:17:05;;;;;;;8.02;7.22;;;19.50;99.90;;;;;;4931296;29;20481;-79
2023/07/01 15:19:31;;;;;;;7.75;6.95;;;19.60;99.90;;;;;;4919089;29;20037;-82
2023/07/01 15:21:57;;;;;;;8.98;8.07;;;19.50;99.90;;;;;;4917612;29;20055;-82
2023/07/01 15:24:22;;;;;;;8.00;7.20;;;19.50;99.90;;;;;;4915449;29;20044;-81
2023/07/01 15:26:48;;;;;;;8.65;7.75;;;19.60;99.90;;;;;;4924207;29;20039;-83
2023/07/01 15:29:13;;;;;;;9.27;6.88;;;19.70;99.90;;;;;;4963197;28;20410;-82
2023/07/01 15:31:39;;;;;;;10.27;6.43;;;19.90;99.90;;;;;;4943377;29;20134;-83
2023/07/01 15:34:05;;;;;;;7.30;6.57;;;20.10;99.90;;;;;;4933953;29;20479;-80
2023/07/01 15:36:30;;;;;;;7.45;5.78;;;20.20;99.90;;;;;;4961134;28;20035;-80
2023/07/01 15:38:56;;;;;;;9.15;6.40;;;20.10;99.90;;;;;;4964166;28;20076;-78
2023/07/01 15:41:21;;;;;;;6.72;6.05;;;20.10;99.90;;;;;;4958493;28;20453;-82
2023/07/01 15:43:47;;;;;;;7.20;5.85;;;20.00;99.90;;;;;;4943511;29;20114;-84
2023/07/01 15:46:13;;;;;;;6.28;5.68;;;19.90;99.90;;;;;;4912443;29;20043;-82
2023/07/01 15:48:38;;;;;;;7.05;6.35;;;19.90;99.90;;;;;;4908771;29;20091;-80
2023/07/01 15:51:04;;;;;;;5.90;5.03;;;19.90;99.90;;;;;;4950029;29;20110;-81
2023/07/01 15:53:29;;;;;;;7.32;4.07;;;20.00;99.90;;;;;;4970312;28;20089;-79
2023/07/01 15:55:55;;;;;;;8.15;4.32;;;20.00;99.90;;;;;;4928323;29;20031;-81